Vauxhall, New Jersey
Current Conditions -  °F | °C
As of 1:51 AM on Saturday 25 Oct 2014 (Local Time) from KEWR Reporting Station
Broken Clouds Broken Clouds  
Wind Chill: 12°   Ceiling: 25000
Heat Index: 12°   Visibility: 10mi
Dew Point:   Wind: 8mph
Humidity: 55%   Direction: 310°NW
Pressure: 29.86"   Gusts: NA
Location:  40.73°N, 74.28°W
Report Text: KEWR 250551Z 31007KT 10SM BKN250 12/03 A2986 RMK AO2 SLP112 T01220033 10167 20122 53007
Loading
Personal Weather Stations






























Interactive Weather Map
Tropical Storm Tracking
New forecast layout! Learn more

10-Day Weather Forecast

Advertisements
Track Severe Weather on mobile